Todos
Faith Muni Airport (Faith, SD) D07 Condiciones meteorológicas
|
Faith, SD (D07)
Cielo despejado
Ventoso |
|
31 °C |
There is no TAF data available at D07 or any nearby airports.
Historial METAR D07 reciente
| Date | Time (MDT) | Flight Rules | Wind Dir. | Speed | Type | Height AGL (ft) | Visibility | Temp (°C) | Temp (°F) | Dew Point (°C) | Dew Point (°F) | Rel. Humid. | Pressure | Density Altitude | Remarks |
|---|---|---|---|---|---|---|---|---|---|---|---|---|---|---|---|
| 06-sep | 09:56AM | n/a | 190° | 13 kt | Missing | 31° | 87° | 13° | 55° | 35% | 29.97 in Hg | 4.929 ft | |||
| 06-sep | 08:56AM | n/a | 190° | 13 kt | Missing | 28° | 82° | 17° | 62° | 51% | 29.97 in Hg | 4.569 ft | |||
| 06-sep | 07:56AM | n/a | 160° | 10 kt | Missing | 23° | 73° | 19° | 66° | 79% | 29.96 in Hg | 3.979 ft | |||
| 06-sep | 06:56AM | n/a | 150° | 9 kt | Missing | 21° | 69° | 19° | 66° | 90% | 29.96 in Hg | 3.739 ft | |||
| 06-sep | 05:56AM | n/a | 140° | 9 kt | Missing | 21° | 69° | 19° | 66° | 87% | 29.94 in Hg | 3.759 ft | |||
| 06-sep | 04:56AM | n/a | 150° | 9 kt | Missing | 21° | 69° | 19° | 66° | 93% | 29.94 in Hg | 3.759 ft | |||
| 06-sep | 03:56AM | n/a | 140° | 10 kt | Missing | 22° | 71° | 19° | 66° | 84% | 29.94 in Hg | 3.879 ft | |||
| 06-sep | 02:56AM | n/a | 140° | 10 kt | Missing | 22° | 71° | 19° | 66° | 84% | 29.94 in Hg | 3.879 ft | |||
| 06-sep | 01:56AM | n/a | 160° | 12 kt | Missing | 22° | 71° | 19° | 66° | 84% | 29.93 in Hg | 3.889 ft | |||
| 06-sep | 12:56AM | n/a | 150° | 11 kt | Missing | 22° | 71° | 19° | 66° | 82% | 29.93 in Hg | 3.889 ft | |||
| 05-sep | 11:56PM | n/a | 140° | 11 kt | Missing | 23° | 73° | 18° | 64° | 76% | 29.93 in Hg | 4.009 ft | |||
| 05-sep | 10:56PM | n/a | 140° | 10 kt | Missing | 23° | 73° | 18° | 64° | 73% | 29.94 in Hg | 3.999 ft | |||
| 05-sep | 09:56PM | n/a | 140° | 12 kt | Missing | 25° | 77° | 17° | 62° | 62% | 29.96 in Hg | 4.219 ft | |||
| 05-sep | 08:56PM | n/a | 130° | 16 kt | Missing | 25° | 77° | 18° | 64° | 66% | 29.94 in Hg | 4.239 ft | |||
| 05-sep | 07:56PM | n/a | 110° | 10 kt | Missing | 27° | 80° | 18° | 64° | 58% | 29.94 in Hg | 4.479 ft | |||
| 05-sep | 06:56PM | n/a | 110° | 10 kt | Missing | 31° | 87° | 13° | 55° | 35% | 29.92 in Hg | 4.979 ft | |||
| 05-sep | 05:56PM | n/a | 150° | 4 kt | Missing | 33° | 91° | 11° | 51° | 27% | 29.89 in Hg | 5.249 ft | |||
| 05-sep | 04:56PM | n/a | 180° | 8 kt | Missing | 36° | 96° | 10° | 50° | 21% | 29.87 in Hg | 5.629 ft | |||
| 05-sep | 03:56PM | n/a | 190° | 10 kt | Missing | 34° | 93° | 14° | 57° | 30% | 29.89 in Hg | 5.369 ft | |||
| 05-sep | 02:56PM | n/a | 210° | 12 kt | Missing | 31° | 87° | 17° | 62° | 45% | 29.94 in Hg | 4.959 ft | |||
| 05-sep | 01:56PM | n/a | 210° | 22 kt | Missing | 32° | 89° | 18° | 64° | 44% | 29.93 in Hg | 5.089 ft | Wind gusting to 27 KT | ||
| 05-sep | 12:56PM | n/a | 170° | 10 kt | Missing | 33° | 91° | 18° | 64° | 42% | 29.89 in Hg | 5.249 ft | Wind gusting to 18 KT | ||
| 05-sep | 11:56AM | n/a | 170° | 13 kt | Missing | 32° | 89° | 18° | 64° | 45% | 29.91 in Hg | 5.109 ft | Wind gusting to 22 KT | ||
| 05-sep | 10:56AM | n/a | 190° | 18 kt | Missing | 29° | 84° | 18° | 64° | 50% | 29.92 in Hg | 4.739 ft | Wind gusting to 25 KT |
Entrar
| Tu navegador no está contemplado. eleva la categoría de tu navegador |
